CheckWX is a tool to help pilots better visualize weather data.  It is not intended as a substitute for an official pre-flight weather briefing.

15:30:48 UTC

KHQM METAR
Bowerman Airport
Hoquiam, Washington, USA
Current

38 mins ago

KHQM 201453Z AUTO 27007KT 7SM SCT015 BKN026 OVC031 12/11 A2980 RMK AO2 SLP094 T01220106 50001
Observed
May-20 @ 14:53 UTC
Wind
  • 270° at 7 KTS
Visibility
7 SM
Flight Rules
MVFR
Cloud Levels
  • Scattered at 1,500' AGL
  • Broken at 2,600' AGL
  • Overcast at 3,100' AGL
Temperature
12°C / 54°F
Dewpoint
11°C / 52°F
Humidity
94%
Altimeter
29.8" Hg
Pressure
1009.12 hPa
Previous

47 mins ago

KHQM 201444Z AUTO 28005KT 8SM SCT015 OVC031 12/11 A2980 RMK AO2 T01220106
Observed
May-20 @ 14:44 UTC
Wind
  • 280° at 5 KTS
Visibility
8 SM
Flight Rules
VFR
Cloud Levels
  • Scattered at 1,500' AGL
  • Overcast at 3,100' AGL
Temperature
12°C / 54°F
Dewpoint
11°C / 52°F
Humidity
94%
Altimeter
29.8" Hg
Pressure
1009.12 hPa
Previous

1 hour ago

KHQM 201415Z AUTO 27006KT 7SM BKN015 OVC031 12/11 A2980 RMK AO2 T01220106
Observed
May-20 @ 14:15 UTC
Wind
  • 270° at 6 KTS
Visibility
7 SM
Flight Rules
MVFR
Cloud Levels
  • Broken at 1,500' AGL
  • Overcast at 3,100' AGL
Temperature
12°C / 54°F
Dewpoint
11°C / 52°F
Humidity
94%
Altimeter
29.8" Hg
Pressure
1009.12 hPa